ENSK

Stokmarknes Skagen Airport

Hadsel, Norway
METAR ENSK 161450Z 13014KT 9999 -SHSN FEW008 SCT012 BKN040 01/M00 Q0996
Observed Flight Rules
Dec-16 @ 14:50 UTC (17 hours ago) Visual Flight Rules
Wind Visibility Clouds Conditions
130° at 14 knots 10,000+ meters
  • Few at 800' AGL
  • Scattered at 1,200' AGL
  • Broken at 4,000' AGL
  • Light Snow
Temperatures Readings
Current 1°C / 34°F
Dewpoint 0°C / 32°F
Humidity 93%
Altimeter 29.41" Hg
Pressure 996 hPa
Elevation 3
METAR ENSK 161450Z 13014KT 9999 -SHSN FEW008 SCT012 BKN040 01/M00 Q0996
Observed Flight Rules
Dec-16 @ 14:50 UTC
(17 hours ago)
VFR
Wind Visibility
130° at 14 knots 10,000+ meters
Clouds
  • Few at 800' AGL
  • Scattered at 1,200' AGL
  • Broken at 4,000' AGL
Conditions
  • Light Snow
Temperature Dewpoint
1°C / 34°F 0°C / 32°F
Humidity Altimeter Pressure
93% 29.41" Hg 996 hPa